Map

Track Data

SID SEASON NUMBER BASIN SUBBASIN NAME ISO_TIME NATURE LAT LON WMO_WIND WMO_PRES WMO_AGENCY TRACK_TYPE DIST2LAND LANDFALL IFLAG USA_AGENCY USA_ATCF_ID USA_LAT USA_LON USA_RECORD USA_STATUS USA_WIND USA_PRES USA_SSHS USA_R34_NE USA_R34_SE USA_R34_SW USA_R34_NW USA_R50_NE USA_R50_SE USA_R50_SW USA_R50_NW USA_R64_NE USA_R64_SE USA_R64_SW USA_R64_NW USA_POCI USA_ROCI USA_RMW USA_EYE TOKYO_LAT TOKYO_LON TOKYO_GRADE TOKYO_WIND TOKYO_PRES TOKYO_R50_DIR TOKYO_R50_LONG TOKYO_R50_SHORT TOKYO_R30_DIR TOKYO_R30_LONG TOKYO_R30_SHORT TOKYO_LAND CMA_LAT CMA_LON CMA_CAT CMA_WIND CMA_PRES HKO_LAT HKO_LON HKO_CAT HKO_WIND HKO_PRES NEWDELHI_LAT NEWDELHI_LON NEWDELHI_GRADE NEWDELHI_WIND NEWDELHI_PRES NEWDELHI_CI NEWDELHI_DP NEWDELHI_POCI REUNION_LAT REUNION_LON REUNION_TYPE REUNION_WIND REUNION_PRES REUNION_TNUM REUNION_CI REUNION_RMW REUNION_R34_NE REUNION_R34_SE REUNION_R34_SW REUNION_R34_NW REUNION_R50_NE REUNION_R50_SE REUNION_R50_SW REUNION_R50_NW REUNION_R64_NE REUNION_R64_SE REUNION_R64_SW REUNION_R64_NW BOM_LAT BOM_LON BOM_TYPE BOM_WIND BOM_PRES BOM_TNUM BOM_CI BOM_RMW BOM_R34_NE BOM_R34_SE BOM_R34_SW BOM_R34_NW BOM_R50_NE BOM_R50_SE BOM_R50_SW BOM_R50_NW BOM_R64_NE BOM_R64_SE BOM_R64_SW BOM_R64_NW BOM_ROCI BOM_POCI BOM_EYE BOM_POS_METHOD BOM_PRES_METHOD NADI_LAT NADI_LON NADI_CAT NADI_WIND NADI_PRES WELLINGTON_LAT WELLINGTON_LON WELLINGTON_WIND WELLINGTON_PRES DS824_LAT DS824_LON DS824_STAGE DS824_WIND DS824_PRES TD9636_LAT TD9636_LON TD9636_STAGE TD9636_WIND TD9636_PRES TD9635_LAT TD9635_LON TD9635_WIND TD9635_PRES TD9635_ROCI NEUMANN_LAT NEUMANN_LON NEUMANN_CLASS NEUMANN_WIND NEUMANN_PRES MLC_LAT MLC_LON MLC_CLASS MLC_WIND MLC_PRES USA_GUST BOM_GUST BOM_GUST_PER REUNION_GUST REUNION_GUST_PER USA_SEAHGT USA_SEARAD_NE USA_SEARAD_SE USA_SEARAD_SW USA_SEARAD_NW STORM_SPEED STORM_DIR
2000058S14063 2000 14 SI MM GLORIA 2000-02-27 00:00:00 TS -13.8000 62.5000 main 870 858 O___________O_ jtwc_sh SH152000 -13.8000 62.5000 TD 20 -1 -13.8000 62.5000 TC 20 3 267
2000058S14063 2000 14 SI MM GLORIA 2000-02-27 03:00:00 TS -13.8100 62.3325 main 858 846 P___________P_ SH152000 -13.8100 62.3325 TD 22 -1 -13.8100 62.3325 TC 22 4 270
2000058S14063 2000 14 SI MM GLORIA 2000-02-27 06:00:00 TS -13.8000 62.1000 main 846 828 O___________O_ jtwc_sh SH152000 -13.8000 62.1000 TD 25 -1 -13.8000 62.1000 TC 25 6 275
2000058S14063 2000 14 SI MM GLORIA 2000-02-27 09:00:00 TS -13.7576 61.7650 main 828 817 P___________P_ SH152000 -13.7576 61.7650 TD 22 -1 -13.7576 61.7650 TC 22 7 282
2000058S14063 2000 14 SI MM GLORIA 2000-02-27 12:00:00 TS -13.6556 61.4111 25 1000 reunion main 817 817 O____O______O_ jtwc_sh SH152000 -13.7000 61.4000 TD 20 -1 -13.3000 61.5000 2 25 1000 2.00000 2.00000 -13.7000 61.4000 TC 20 6 285
2000058S14063 2000 14 SI MM GLORIA 2000-02-27 15:00:00 TS -13.6009 61.1430 main 812 803 P____P______P_ SH152000 -13.6499 61.1075 TD 22 -1 -13.4050 61.2850 2 25 1000 -13.6499 61.1075 TC 22 5 279
2000058S14063 2000 14 SI MM GLORIA 2000-02-27 18:00:00 TS -13.5727 60.8545 25 1000 reunion main 803 786 O____O______O_ jtwc_sh SH152000 -13.6000 60.8000 TD 25 -1 -13.5000 61.0000 2 25 1000 2.00000 2.00000 -13.6000 60.8000 TC 25 6 273
2000058S14063 2000 14 SI MM GLORIA 2000-02-27 21:00:00 TS -13.5624 60.4851 main 786 774 P____P______P_ SH152000 -13.5574 60.4301 TD 25 -1 -13.5725 60.5951 2 25 1000 -13.5574 60.4301 TC 25 8 273
2000058S14063 2000 14 SI MM GLORIA 2000-02-28 00:00:00 TS -13.5333 60.0333 25 1000 reunion main 778 763 O____O______O_ jtwc_sh SH152000 -13.5000 60.0000 TD 25 -1 -13.6000 60.1000 2 25 1000 2.00000 2.00000 -13.5000 60.0000 TC 25 10 276
2000058S14063 2000 14 SI MM GLORIA 2000-02-28 03:00:00 TS -13.4576 59.5116 main 763 762 P____P______P_ SH152000 -13.4001 59.4849 TD 27 -1 -13.5725 59.5650 2 25 1000 -13.4001 59.4849 TC 27 10 279
2000058S14063 2000 14 SI MM GLORIA 2000-02-28 06:00:00 TS -13.3667 59.0000 25 1000 reunion main 762 760 O____O______O_ jtwc_sh SH152000 -13.3000 59.0000 TD 30 -1 -13.5000 59.0000 2 25 1000 2.00000 2.00000 -13.3000 59.0000 TC 30 9 280
2000058S14063 2000 14 SI MM GLORIA 2000-02-28 09:00:00 TS -13.3024 58.5967 main 767 763 P____P______P_ SH152000 -13.2498 58.6776 TD 30 -1 -13.4075 58.4350 2 25 999 -13.2498 58.6776 TC 30 8 280
2000058S14063 2000 14 SI MM GLORIA 2000-02-28 12:00:00 TS -13.2333 58.2333 25 999 reunion main 774 772 O____O______O_ jtwc_sh SH152000 -13.2000 58.4000 TD 30 -1 -13.3000 57.9000 2 25 999 2.00000 2.00000 -13.2000 58.4000 TC 30 7 283
2000058S14063 2000 14 SI MM GLORIA 2000-02-28 15:00:00 TS -13.1357 57.8625 main 783 783 P____P______P_ SH152000 -13.1073 58.0875 TD 30 -1 -13.1924 57.4125 2 25 999 -13.1073 58.0875 TC 30 8 285
2000058S14063 2000 14 SI MM GLORIA 2000-02-28 18:00:00 TS -13.0333 57.4667 25 999 reunion main 794 753 O____O______O_ jtwc_sh SH152000 -13.0000 57.7000 TD 30 -1 -13.1000 57.0000 2 25 999 2.00000 2.00000 -13.0000 57.7000 TC 30 8 282
2000058S14063 2000 14 SI MM GLORIA 2000-02-28 21:00:00 TS -12.9574 57.0251 main 743 706 P____P______P_ SH152000 -12.9075 57.1876 TD 32 -1 -13.0573 56.7001 2 27 998 -12.9075 57.1876 TC 32 9 280
2000058S14063 2000 14 SI MM GLORIA 2000-02-29 00:00:00 TS -12.8667 56.5333 30 997 reunion main 696 650 O____O______O_ jtwc_sh SH152000 -12.8000 56.6000 TS 35 0 -13.0000 56.4000 2 30 997 2.50000 2.50000 -12.8000 56.6000 TC 35 10 283
2000058S14063 2000 14 SI MM GLORIA 2000-02-29 03:00:00 TS -12.7290 56.0084 main 650 600 P____P______P_ SH152000 -12.6574 56.0075 TS 35 0 -12.8723 56.0101 2 30 997 -12.6574 56.0075 TC 35 11 286
2000058S14063 2000 14 SI MM GLORIA 2000-02-29 06:00:00 TS -12.5667 55.4333 30 997 reunion main 589 543 O____O______O_ jtwc_sh SH152000 -12.5000 55.4000 TS 35 0 -12.7000 55.5000 2 30 997 2.50000 2.50000 -12.5000 55.4000 TC 35 12 287
2000058S14063 2000 14 SI MM GLORIA 2000-02-29 09:00:00 TS -12.3724 54.8223 main 532 475 P____P______P_ SH152000 -12.3198 54.8074 TS 37 0 -12.4775 54.8522 2 30 997 -12.3198 54.8074 TC 37 13 285
2000058S14063 2000 14 SI MM GLORIA 2000-02-29 12:00:00 TS -12.2333 54.1667 30 997 reunion main 475 401 O____O______O_ jtwc_sh SH152000 -12.2000 54.2000 TS 40 0 -12.3000 54.1000 2 30 997 2.00000 2.50000 -12.2000 54.2000 TC 40 14 276
2000058S14063 2000 14 SI MM GLORIA 2000-02-29 15:00:00 TS -12.2218 53.4418 main 390 324 P____P______P_ SH152000 -12.2050 53.5426 TS 42 0 -12.2554 53.2402 2 30 997 -12.2050 53.5426 TC 42 14 267
2000058S14063 2000 14 SI MM GLORIA 2000-02-29 18:00:00 TS -12.3000 52.7667 30 997 reunion main 324 269 O____O______O_ jtwc_sh SH152000 -12.3000 52.9000 TS 45 0 -12.3000 52.5000 2 30 997 2.50000 2.50000 -12.3000 52.9000 TC 45 12 261
2000058S14063 2000 14 SI MM GLORIA 2000-02-29 21:00:00 TS -12.4132 52.2401 main 258 221 P____P______P_ SH152000 -12.4350 52.2976 TS 45 0 -12.3696 52.1250 2 32 995 -12.4350 52.2976 TC 45 10 254
2000058S14063 2000 14 SI MM GLORIA 2000-03-01 00:00:00 TS -12.5667 51.8333 35 994 reunion main 210 176 O____O______O_ jtwc_sh SH152000 -12.6000 51.8000 TS 45 0 -12.5000 51.9000 3 35 994 3.00000 3.00000 -12.6000 51.8000 TC 45 8 247
2000058S14063 2000 14 SI MM GLORIA 2000-03-01 03:00:00 TS -12.7157 51.5032 main 176 141 P____P______P_ SH152000 -12.7423 51.4549 TS 47 0 -12.6625 51.5999 3 37 992 -12.7423 51.4549 TC 47 7 240
2000058S14063 2000 14 SI MM GLORIA 2000-03-01 06:00:00 TS -12.9000 51.2333 40 990 reunion main 141 113 O____O______O_ jtwc_sh SH152000 -12.9000 51.2000 TS 50 0 -12.9000 51.3000 3 40 990 3.00000 3.00000 -12.9000 51.2000 TC 50 7 231
2000058S14063 2000 14 SI MM GLORIA 2000-03-01 09:00:00 TS -13.1399 50.9666 main 113 75 P____P______P_ SH152000 -13.0924 50.9500 TS 50 0 -13.2350 51.0000 3 42 988 -13.0924 50.9500 TC 50 7 226
2000058S14063 2000 14 SI MM GLORIA 2000-03-01 12:00:00 TS -13.4000 50.7000 45 987 reunion main 75 39 O____O______O_ jtwc_sh SH152000 -13.3000 50.7000 TS 50 0 -13.6000 50.7000 3 45 987 3.50000 3.50000 -13.3000 50.7000 TC 50 7 229
2000058S14063 2000 14 SI MM GLORIA 2000-03-01 15:00:00 TS -13.6158 50.3999 main 39 0 P____P______P_ SH152000 -13.4625 50.3999 TS 50 0 -13.9225 50.4000 3 47 986 -13.4625 50.3999 TC 50 7 231
2000058S14063 2000 14 SI MM GLORIA 2000-03-01 18:00:00 TS -13.8667 50.1000 50 985 reunion main 0 0 O____O______O_ jtwc_sh SH152000 -13.7000 50.1000 TS 50 0 -14.2000 50.1000 3 50 985 3.50000 3.50000 -13.7000 50.1000 TC 50 8 223
2000058S14063 2000 14 SI MM GLORIA 2000-03-01 21:00:00 TS -14.2158 49.8183 main 0 0 P____P______P_ SH152000 -14.1275 49.8351 TS 47 0 -14.3925 49.7849 3 -14.1275 49.8351 TC 47 9 215
2000058S14063 2000 14 SI MM GLORIA 2000-03-02 00:00:00 TS -14.6000 49.5667 reunion main 0 0 O____O______O_ jtwc_sh SH152000 -14.6000 49.6000 TS 45 0 -14.6000 49.5000 8 9.90000 -14.6000 49.6000 TC 45 9 211
2000058S14063 2000 14 SI MM GLORIA 2000-03-02 03:00:00 TS -14.9499 49.3665 main 0 0 P____P______P_ SH152000 -14.9649 49.3998 TS 37 0 -14.9199 49.2998 8 -14.9649 49.3998 TC 37 8 209
2000058S14063 2000 14 SI MM GLORIA 2000-03-02 06:00:00 TS -15.3000 49.1667 reunion main 0 0 O____O______O_ jtwc_sh SH152000 -15.3000 49.2000 TD 30 -1 -15.3000 49.1000 8 9.90000 -15.3000 49.2000 TC 30 8 209
2000058S14063 2000 14 SI MM GLORIA 2000-03-02 09:00:00 TS -15.6765 48.9399 main 0 0 P____P______P_ SH152000 -15.6649 48.9874 TD 30 -1 -15.6999 48.8449 8 -15.6649 48.9874 TC 30 9 215
2000058S14063 2000 14 SI MM GLORIA 2000-03-02 12:00:00 TS -16.0333 48.6333 reunion main 0 0 O____O______O_ jtwc_sh SH152000 -16.0000 48.7000 TD 30 -1 -16.1000 48.5000 8 9.90000 -16.0000 48.7000 TC 30 10 228
2000058S14063 2000 14 SI MM GLORIA 2000-03-02 15:00:00 TS -16.3243 48.1891 main 0 0 P____P______P_ SH152000 -16.2652 48.2575 TD 27 -1 -16.4424 48.0521 8 -16.2652 48.2575 TC 27 11 238
2000058S14063 2000 14 SI MM GLORIA 2000-03-02 18:00:00 TS -16.6000 47.7000 reunion main 0 0 O____O______O_ jtwc_sh SH152000 -16.5000 47.8000 TD 25 -1 -16.8000 47.5000 8 9.90000 -16.5000 47.8000 TC 25 11 236
2000058S14063 2000 14 SI MM GLORIA 2000-03-02 21:00:00 TS -16.9293 47.2410 main 0 0 P____P______P_ SH152000 -16.7499 47.4549 TD 25 -1 -17.2879 46.8133 8 -16.7499 47.4549 TC 25 10 232
2000058S14063 2000 14 SI MM GLORIA 2000-03-03 00:00:00 TS -17.2333 46.8667 reunion main 0 0 O____O______O_ jtwc_sh SH152000 -17.0000 47.2000 TD 25 -1 -17.7000 46.2000 8 9.90000 -17.0000 47.2000 TC 25 8 227
2000058S14063 2000 14 SI MM GLORIA 2000-03-03 03:00:00 TS -17.4556 46.6531 main 0 0 P____P______P_ SH152000 -17.2574 47.0349 TD 25 -1 -17.8521 45.8894 8 -17.2574 47.0349 TC 25 5 221
2000058S14063 2000 14 SI MM GLORIA 2000-03-03 06:00:00 TS -17.6333 46.5000 reunion main 0 0 O____O______O_ jtwc_sh SH152000 -17.5000 46.9000 TD 25 -1 -17.9000 45.7000 8 9.90000 -17.5000 46.9000 TC 25 5 224
2000058S14063 2000 14 SI MM GLORIA 2000-03-03 09:00:00 TS -17.8100 46.2933 main 0 0 P____P______P_ SH152000 -17.7150 46.7150 TD 25 -1 -18.0000 45.4500 8 -17.7150 46.7150 TC 25 5 231
2000058S14063 2000 14 SI MM GLORIA 2000-03-03 12:00:00 TS -17.9667 46.0667 reunion main 0 0 O____O______O_ jtwc_sh SH152000 -17.9000 46.5000 TD 25 -1 -18.1000 45.2000 8 9.90000 -17.9000 46.5000 TC 25 5 236
2000058S14063 2000 14 SI MM GLORIA 2000-03-03 15:00:00 TS -18.1050 45.8266 main 0 0 P____P______P_ SH152000 -18.0575 46.2649 TD 25 -1 -18.2000 44.9500 8 -18.0575 46.2649 TC 25 5 241
2000058S14063 2000 14 SI MM GLORIA 2000-03-03 18:00:00 TS -18.2333 45.5667 reunion main 0 0 O____O______O_ jtwc_sh SH152000 -18.2000 46.0000 TD 25 -1 -18.3000 44.7000 8 9.90000 -18.2000 46.0000 TC 25 6 244
2000058S14063 2000 14 SI MM GLORIA 2000-03-03 21:00:00 TS -18.3592 45.2808 main 0 0 P____P______P_ SH152000 -18.3425 45.7000 TD 25 -1 -18.3925 44.4425 8 -18.3425 45.7000 TC 25 6 244
2000058S14063 2000 14 SI MM GLORIA 2000-03-04 00:00:00 TS -18.5000 45.0000 1005 reunion main 0 0 O____O______O_ jtwc_sh SH152000 -18.5000 45.4000 TD 25 -1 -18.5000 44.2000 6 1005 9.90000 -18.5000 45.4000 TC 25 6 238
2000058S14063 2000 14 SI MM GLORIA 2000-03-04 03:00:00 TS -18.6733 44.7442 main 0 0 P____P______P_ SH152000 -18.7000 45.1275 TD 25 -1 -18.6200 43.9775 6 1005 -18.7000 45.1275 TC 25 6 230
2000058S14063 2000 14 SI MM GLORIA 2000-03-04 06:00:00 TS -18.8667 44.5333 1006 reunion main 0 0 O____O______O_ jtwc_sh SH152000 -18.9000 44.9000 TD 25 -1 -18.8000 43.8000 6 1006 9.90000 -18.9000 44.9000 TC 25 5 221
2000058S14063 2000 14 SI MM GLORIA 2000-03-04 09:00:00 TS -19.0641 44.3849 main 0 0 P____P______P_ SH152000 -19.0499 44.7349 TD 25 -1 -19.0925 43.6850 6 1006 -19.0499 44.7349 TC 25 5 212
2000058S14063 2000 14 SI MM GLORIA 2000-03-04 12:00:00 TS -19.2667 44.2667 1006 reunion main 10 10 O____O______O_ jtwc_sh SH152000 -19.2000 44.6000 TD 25 -1 -19.4000 43.6000 6 1006 9.90000 -19.2000 44.6000 TC 25 5 210
2000058S14063 2000 14 SI MM GLORIA 2000-03-04 15:00:00 TS -19.4717 44.1333 main 38 38 P____P______P_ SH152000 -19.3925 44.4500 TD 25 -1 -19.6300 43.5000 6 1006 -19.3925 44.4500 TC 25 5 212
2000058S14063 2000 14 SI MM GLORIA 2000-03-04 18:00:00 TS -19.6667 44.0000 1007 reunion main 43 43 O____O______O_ jtwc_sh SH152000 -19.6000 44.3000 TD 25 -1 -19.8000 43.4000 6 1007 9.90000 -19.6000 44.3000 TC 25 5 214
2000058S14063 2000 14 SI MM GLORIA 2000-03-04 21:00:00 TS -19.8433 43.8666 main 52 52 P____P______P_ SH152000 -19.8075 44.1500 TD 25 -1 -19.9150 43.3000 6 1007 -19.8075 44.1500 TC 25 4 217
2000058S14063 2000 14 SI MM GLORIA 2000-03-05 00:00:00 TS -20.0000 43.7333 1007 reunion main 69 61 O____O______O_ jtwc_sh SH152000 -20.0000 44.0000 TD 25 -1 -20.0000 43.2000 6 1007 9.90000 -20.0000 44.0000 TC 25 4 220
2000058S14063 2000 14 SI MM GLORIA 2000-03-05 03:00:00 TS -20.1433 43.5950 main 68 61 P____P______P_ SH152000 -20.1650 43.8425 TD 25 -1 -20.1000 43.1000 6 1007 -20.1650 43.8425 TC 25 4 228
2000058S14063 2000 14 SI MM GLORIA 2000-03-05 06:00:00 TS -20.2600 43.4200 1007 reunion main 76 76 O____O______O_ jtwc_sh SH152000 -20.3000 43.7000 TD 25 -1 -20.2000 43.0000 6 1007 9.90000 -20.3000 43.7000 TC 25 4 237
2000058S14063 2000 14 SI MM GLORIA 2000-03-05 09:00:00 TS -20.3537 43.2450 main 85 85 P____P______P_ SH152000 -20.4075 43.5900 TD 25 -1 -20.3000 42.9000 6 1006 -20.4075 43.5900 TC 25 4 244
2000058S14063 2000 14 SI MM GLORIA 2000-03-05 12:00:00 TS -20.4333 43.0333 1006 reunion main 103 103 O____O______O_ jtwc_sh SH152000 -20.5000 43.5000 TD 25 -1 -20.4000 42.8000 6 1006 9.90000 -20.5000 43.5000 TC 25 5 253
2000058S14063 2000 14 SI MM GLORIA 2000-03-05 15:00:00 TS -20.5075 42.7075 main 129 129 _____P________ SH152000 TD -1 -20.5075 42.7075 6 1006 TC 4 248
2000058S14063 2000 14 SI MM GLORIA 2000-03-05 18:00:00 TS -20.6000 42.6000 1006 reunion main 129 129 _____O________ -20.6000 42.6000 6 1006 9.90000 3 239
2000058S14063 2000 14 SI MM GLORIA 2000-03-05 21:00:00 TS -20.6500 42.4500 main 138 138 _____P________ -20.6500 42.4500 6 1006 3 250
2000058S14063 2000 14 SI MM GLORIA 2000-03-06 00:00:00 TS -20.7000 42.3000 1006 reunion main 147 147 _____O________ -20.7000 42.3000 6 1006 9.90000 3 238
2000058S14063 2000 14 SI MM GLORIA 2000-03-06 03:00:00 TS -20.8000 42.1925 main 150 150 _____P________ -20.8000 42.1925 6 1006 3 223
2000058S14063 2000 14 SI MM GLORIA 2000-03-06 06:00:00 TS -20.9000 42.1000 1006 reunion main 155 155 _____O________ -20.9000 42.1000 6 1006 9.90000 2 229
2000058S14063 2000 14 SI MM GLORIA 2000-03-06 09:00:00 TS -20.9500 42.0075 main 165 161 _____P________ -20.9500 42.0075 6 1006 2 241
2000058S14063 2000 14 SI MM GLORIA 2000-03-06 12:00:00 TS -21.0000 41.9000 1006 reunion main 171 171 _____O________ -21.0000 41.9000 2 1006 1.50000 1.50000 3 235
2000058S14063 2000 14 SI MM GLORIA 2000-03-06 15:00:00 TS -21.1075 41.7725 main 179 179 _____P________ -21.1075 41.7725 2 1006 3 235
2000058S14063 2000 14 SI MM GLORIA 2000-03-06 18:00:00 TS -21.2000 41.6000 1006 reunion main 197 197 _____O________ -21.2000 41.6000 2 1006 1.50000 1.50000 4 257
2000058S14063 2000 14 SI MM GLORIA 2000-03-06 21:00:00 TS -21.1925 41.3648 main 215 215 _____P________ -21.1925 41.3648 2 1006 5 270
2000058S14063 2000 14 SI MM GLORIA 2000-03-07 00:00:00 TS -21.2000 41.1000 1006 reunion main 244 244 _____O________ -21.2000 41.1000 2 1006 1.50000 1.50000 5 256
2000058S14063 2000 14 SI MM GLORIA 2000-03-07 03:00:00 TS -21.3124 40.8574 main 257 257 _____P________ -21.3124 40.8574 2 1006 6 237
2000058S14063 2000 14 SI MM GLORIA 2000-03-07 06:00:00 TS -21.5000 40.6000 1007 reunion main 279 279 _____O________ -21.5000 40.6000 2 1007 1.50000 1.50000 7 229
2000058S14063 2000 14 SI MM GLORIA 2000-03-07 09:00:00 TS -21.7499 40.3226 main 304 302 _____P________ -21.7499 40.3226 2 1007 8 228
2000058S14063 2000 14 SI MM GLORIA 2000-03-07 12:00:00 TS -22.0000 40.0000 1007 reunion main 330 330 _____O________ -22.0000 40.0000 2 1007 1.50000 1.50000 8 236
2000058S14063 2000 14 SI MM GLORIA 2000-03-07 15:00:00 TS -22.1799 39.6300 main 370 370 _____P________ -22.1799 39.6300 2 1006 8 248
2000058S14063 2000 14 SI MM GLORIA 2000-03-07 18:00:00 TS -22.3000 39.2000 1006 reunion main 375 325 _____O________ -22.3000 39.2000 2 1006 1.50000 1.50000 9 260
2000058S14063 2000 14 SI MM GLORIA 2000-03-07 21:00:00 TS -22.3352 38.6921 main 325 272 _____P________ -22.3352 38.6921 2 1005 9 264
2000058S14063 2000 14 SI MM GLORIA 2000-03-08 00:00:00 TS -22.4000 38.2000 20 1005 reunion main 272 227 _____O________ -22.4000 38.2000 2 20 1005 1.50000 1.50000 8 252
2000058S14063 2000 14 SI MM GLORIA 2000-03-08 03:00:00 TS -22.5898 37.8199 main 227 194 _____P________ -22.5898 37.8199 2 20 1004 8 232
2000058S14063 2000 14 SI MM GLORIA 2000-03-08 06:00:00 TS -22.9000 37.5000 20 1004 reunion main 194 169 _____O________ -22.9000 37.5000 2 20 1004 1.50000 1.50000 10 217
2000058S14063 2000 14 SI MM GLORIA 2000-03-08 09:00:00 TS -23.3574 37.2002 main 172 142 _____P________ -23.3574 37.2002 2 22 1003 11 211
2000058S14063 2000 14 SI MM GLORIA 2000-03-08 12:00:00 TS -23.8000 36.9000 25 1002 reunion main 142 111 _____O________ -23.8000 36.9000 2 25 1002 2.00000 2.00000 9 219
2000058S14063 2000 14 SI MM GLORIA 2000-03-08 15:00:00 TS -24.0825 36.5575 main 111 71 _____P________ -24.0825 36.5575 2 25 1001 8 238
2000058S14063 2000 14 SI MM GLORIA 2000-03-08 18:00:00 TS -24.2000 36.2000 25 1000 reunion main 71 40 _____O________ -24.2000 36.2000 2 25 1000 2.00000 2.00000 6 265
2000058S14063 2000 14 SI MM GLORIA 2000-03-08 21:00:00 TS -24.1373 35.8647 main 40 0 _____P________ -24.1373 35.8647 2 25 1000 7 287
2000058S14063 2000 14 SI MM GLORIA 2000-03-09 00:00:00 TS -24.0000 35.5000 25 1000 reunion main 0 0 _____O________ -24.0000 35.5000 2 25 1000 2.00000 2.00000 8 285
2000058S14063 2000 14 SI MM GLORIA 2000-03-09 03:00:00 TS -23.9425 35.0651 main 0 0 _____P________ -23.9425 35.0651 2 8 277
2000058S14063 2000 14 SI MM GLORIA 2000-03-09 06:00:00 NR -23.9000 34.6000 reunion main 0 0 _____O________ -23.9000 34.6000 8 9.90000 9 277
2000058S14063 2000 14 SI MM GLORIA 2000-03-09 09:00:00 NR -23.8352 34.0974 main 0 0 _____P________ -23.8352 34.0974 8 8 277
2000058S14063 2000 14 SI MM GLORIA 2000-03-09 12:00:00 NR -23.8000 33.7000 reunion main 0 0 _____O________ -23.8000 33.7000 8 9.90000 5 270
2000058S14063 2000 14 SI MM GLORIA 2000-03-09 15:00:00 NR -23.8348 33.5326 main 0 0 _____P________ -23.8348 33.5326 8 2 241
2000058S14063 2000 14 SI MM GLORIA 2000-03-09 18:00:00 NR -23.9000 33.5000 reunion main 0 0 _____O________ -23.9000 33.5000 8 9.90000 1 197
2000058S14063 2000 14 SI MM GLORIA 2000-03-09 21:00:00 NR -23.9350 33.4850 main 0 0 _____P________ -23.9350 33.4850 8 1 0
2000058S14063 2000 14 SI MM GLORIA 2000-03-10 00:00:00 NR -24.0000 33.5000 reunion main 0 0 _____O________ -24.0000 33.5000 8 9.90000 2 173
2000058S14063 2000 14 SI MM GLORIA 2000-03-10 03:00:00 NR -24.1500 33.4925 main 0 0 _____P________ -24.1500 33.4925 8 3 0
2000058S14063 2000 14 SI MM GLORIA 2000-03-10 06:00:00 NR -24.3000 33.5000 reunion main 0 0 _____O________ -24.3000 33.5000 8 9.90000 2 172
2000058S14063 2000 14 SI MM GLORIA 2000-03-10 09:00:00 NR -24.3750 33.5400 main 0 0 _____P________ -24.3750 33.5400 8 1 140
2000058S14063 2000 14 SI MM GLORIA 2000-03-10 12:00:00 TS -24.4000 33.6000 reunion main 0 _____O________ -24.4000 33.6000 6 9.90000 1 117

About IBTrACS Database

This database is a web-friendly format of International Best Track Archive for Climate Stewardship (IBTrACS), a global best track data archive curated by NOAA dating back to 1842.

Updated: 2021-10-08